sensor_id;sensor_type;location;lat;lon;timestamp;pressure;altitude;pressure_sealevel;temperature;humidity
68179;BME280;54998;42.656;23.382;2023-02-13T00:01:48;96594.44;;;-2.37;82.25
68179;BME280;54998;42.656;23.382;2023-02-13T00:04:14;96594.44;;;-2.35;82.14
68179;BME280;54998;42.656;23.382;2023-02-13T00:06:39;96595.31;;;-2.36;82.48
68179;BME280;54998;42.656;23.382;2023-02-13T00:09:05;96591.94;;;-2.37;82.43
68179;BME280;54998;42.656;23.382;2023-02-13T00:11:30;96596.91;;;-2.32;82.37
68179;BME280;54998;42.656;23.382;2023-02-13T00:13:57;96601.13;;;-2.34;82.36
68179;BME280;54998;42.656;23.382;2023-02-13T00:16:22;96590.88;;;-2.19;81.91
68179;BME280;54998;42.656;23.382;2023-02-13T00:18:47;96601.78;;;-2.18;81.67
68179;BME280;54998;42.656;23.382;2023-02-13T00:21:13;96600.13;;;-2.21;81.56
68179;BME280;54998;42.656;23.382;2023-02-13T00:23:39;96607.00;;;-2.35;81.96
68179;BME280;54998;42.656;23.382;2023-02-13T00:26:07;96609.38;;;-2.23;81.73
68179;BME280;54998;42.656;23.382;2023-02-13T00:28:33;96611.03;;;-2.23;81.83
68179;BME280;54998;42.656;23.382;2023-02-13T00:31:07;96614.38;;;-2.21;81.66
68179;BME280;54998;42.656;23.382;2023-02-13T00:33:33;96602.59;;;-2.19;81.50
68179;BME280;54998;42.656;23.382;2023-02-13T00:38:29;96612.06;;;-2.37;81.91
68179;BME280;54998;42.656;23.382;2023-02-13T00:40:54;96596.97;;;-2.35;81.98
68179;BME280;54998;42.656;23.382;2023-02-13T00:43:20;96606.13;;;-2.31;82.06
68179;BME280;54998;42.656;23.382;2023-02-13T00:45:45;96604.44;;;-2.32;82.52
68179;BME280;54998;42.656;23.382;2023-02-13T00:48:10;96617.81;;;-2.29;82.46
68179;BME280;54998;42.656;23.382;2023-02-13T00:50:36;96612.91;;;-2.36;82.59
68179;BME280;54998;42.656;23.382;2023-02-13T00:53:01;96612.91;;;-2.36;82.72
68179;BME280;54998;42.656;23.382;2023-02-13T00:55:26;96618.69;;;-2.31;82.97
68179;BME280;54998;42.656;23.382;2023-02-13T00:57:52;96627.88;;;-2.29;82.54
68179;BME280;54998;42.656;23.382;2023-02-13T01:00:18;96623.59;;;-2.19;82.26
68179;BME280;54998;42.656;23.382;2023-02-13T01:02:43;96624.44;;;-2.21;82.24
68179;BME280;54998;42.656;23.382;2023-02-13T01:05:09;96619.44;;;-2.24;82.38
68179;BME280;54998;42.656;23.382;2023-02-13T01:07:38;96621.03;;;-2.17;82.07
68179;BME280;54998;42.656;23.382;2023-02-13T01:10:04;96621.84;;;-2.14;81.93
68179;BME280;54998;42.656;23.382;2023-02-13T01:12:30;96621.09;;;-2.20;81.88
68179;BME280;54998;42.656;23.382;2023-02-13T01:14:55;96621.91;;;-2.21;81.89
68179;BME280;54998;42.656;23.382;2023-02-13T01:17:20;96612.66;;;-2.19;81.90
68179;BME280;54998;42.656;23.382;2023-02-13T01:19:46;96610.81;;;-2.05;81.55
68179;BME280;54998;42.656;23.382;2023-02-13T01:22:11;96615.91;;;-2.08;81.09
68179;BME280;54998;42.656;23.382;2023-02-13T01:24:37;96624.22;;;-2.03;81.53
68179;BME280;54998;42.656;23.382;2023-02-13T01:27:02;96632.56;;;-1.99;81.07
68179;BME280;54998;42.656;23.382;2023-02-13T01:29:28;96620.75;;;-1.96;80.85
68179;BME280;54998;42.656;23.382;2023-02-13T01:31:54;96624.97;;;-1.96;81.30
68179;BME280;54998;42.656;23.382;2023-02-13T01:34:19;96627.47;;;-1.95;81.29
68179;BME280;54998;42.656;23.382;2023-02-13T01:36:44;96630.06;;;-2.01;80.85
68179;BME280;54998;42.656;23.382;2023-02-13T01:39:11;96628.97;;;-1.84;81.02
68179;BME280;54998;42.656;23.382;2023-02-13T01:41:37;96623.13;;;-1.85;80.72
68179;BME280;54998;42.656;23.382;2023-02-13T01:44:03;96623.19;;;-1.88;80.81
68179;BME280;54998;42.656;23.382;2023-02-13T01:46:32;96631.41;;;-1.78;80.92
68179;BME280;54998;42.656;23.382;2023-02-13T01:49:20;96636.38;;;-1.72;80.03
68179;BME280;54998;42.656;23.382;2023-02-13T01:51:49;96629.56;;;-1.67;80.03
68179;BME280;54998;42.656;23.382;2023-02-13T01:54:21;96636.22;;;-1.63;79.75
68179;BME280;54998;42.656;23.382;2023-02-13T01:56:52;96625.41;;;-1.70;79.63
68179;BME280;54998;42.656;23.382;2023-02-13T01:59:24;96638.94;;;-1.75;79.79
68179;BME280;54998;42.656;23.382;2023-02-13T02:01:51;96635.53;;;-1.71;79.90
68179;BME280;54998;42.656;23.382;2023-02-13T02:04:21;96625.41;;;-1.68;79.85
68179;BME280;54998;42.656;23.382;2023-02-13T02:06:55;96634.50;;;-1.59;79.50
68179;BME280;54998;42.656;23.382;2023-02-13T02:09:28;96627.84;;;-1.63;79.58
68179;BME280;54998;42.656;23.382;2023-02-13T02:14:48;96629.63;;;-1.70;79.60
68179;BME280;54998;42.656;23.382;2023-02-13T02:17:15;96617.09;;;-1.73;79.63
68179;BME280;54998;42.656;23.382;2023-02-13T02:20:03;96622.88;;;-1.68;79.62
68179;BME280;54998;42.656;23.382;2023-02-13T02:23:15;96618.66;;;-1.68;79.72
68179;BME280;54998;42.656;23.382;2023-02-13T02:34:28;96621.25;;;-1.71;79.78
68179;BME280;54998;42.656;23.382;2023-02-13T02:37:35;96628.72;;;-1.64;79.81
68179;BME280;54998;42.656;23.382;2023-02-13T02:40:23;96638.63;;;-1.55;79.29
68179;BME280;54998;42.656;23.382;2023-02-13T02:51:25;96650.56;;;-1.68;79.44
68179;BME280;54998;42.656;23.382;2023-02-13T02:54:12;96658.19;;;-1.71;79.85
68179;BME280;54998;42.656;23.382;2023-02-13T02:57:03;96651.47;;;-1.74;79.67
68179;BME280;54998;42.656;23.382;2023-02-13T02:59:31;96664.06;;;-1.72;79.84
68179;BME280;54998;42.656;23.382;2023-02-13T03:02:17;96659.00;;;-1.71;79.54
68179;BME280;54998;42.656;23.382;2023-02-13T03:05:02;96664.09;;;-1.75;79.62
68179;BME280;54998;42.656;23.382;2023-02-13T03:07:46;96653.31;;;-1.83;80.27
68179;BME280;54998;42.656;23.382;2023-02-13T03:10:19;96654.06;;;-1.78;79.95
68179;BME280;54998;42.656;23.382;2023-02-13T03:13:14;96655.81;;;-1.83;80.37
68179;BME280;54998;42.656;23.382;2023-02-13T03:15:49;96659.91;;;-1.75;80.18
68179;BME280;54998;42.656;23.382;2023-02-13T03:18:38;96653.09;;;-1.70;79.87
68179;BME280;54998;42.656;23.382;2023-02-13T03:30:04;96665.75;;;-1.74;79.23
68179;BME280;54998;42.656;23.382;2023-02-13T03:35:30;96673.44;;;-1.83;77.05
68179;BME280;54998;42.656;23.382;2023-02-13T03:46:50;96665.66;;;-2.32;77.35
68179;BME280;54998;42.656;23.382;2023-02-13T03:49:21;96667.47;;;-2.46;78.72
68179;BME280;54998;42.656;23.382;2023-02-13T03:52:20;96670.69;;;-2.32;79.71
68179;BME280;54998;42.656;23.382;2023-02-13T03:55:09;96668.06;;;-2.24;79.35
68179;BME280;54998;42.656;23.382;2023-02-13T03:57:58;96661.19;;;-2.08;79.08
68179;BME280;54998;42.656;23.382;2023-02-13T04:00:51;96660.13;;;-1.92;79.38
68179;BME280;54998;42.656;23.382;2023-02-13T04:03:39;96661.50;;;-1.69;78.92
68179;BME280;54998;42.656;23.382;2023-02-13T04:06:16;96666.56;;;-1.71;78.69
68179;BME280;54998;42.656;23.382;2023-02-13T04:08:44;96664.88;;;-1.70;78.47
68179;BME280;54998;42.656;23.382;2023-02-13T04:11:16;96661.50;;;-1.69;78.90
68179;BME280;54998;42.656;23.382;2023-02-13T04:13:54;96660.59;;;-1.65;78.43
68179;BME280;54998;42.656;23.382;2023-02-13T04:16:34;96666.66;;;-1.78;78.38
68179;BME280;54998;42.656;23.382;2023-02-13T04:19:01;96657.47;;;-1.82;78.08
68179;BME280;54998;42.656;23.382;2023-02-13T04:21:31;96665.31;;;-2.04;77.31
68179;BME280;54998;42.656;23.382;2023-02-13T04:23:57;96661.31;;;-2.20;77.86
68179;BME280;54998;42.656;23.382;2023-02-13T04:28:57;96673.28;;;-2.39;78.17
68179;BME280;54998;42.656;23.382;2023-02-13T04:31:22;96688.19;;;-2.22;77.84
68179;BME280;54998;42.656;23.382;2023-02-13T04:33:48;96678.81;;;-2.13;77.20
68179;BME280;54998;42.656;23.382;2023-02-13T04:36:13;96676.31;;;-2.13;76.96
68179;BME280;54998;42.656;23.382;2023-02-13T04:38:38;96666.91;;;-1.98;76.60
68179;BME280;54998;42.656;23.382;2023-02-13T04:41:04;96672.75;;;-1.95;76.24
68179;BME280;54998;42.656;23.382;2023-02-13T04:43:29;96666.03;;;-1.94;75.92
68179;BME280;54998;42.656;23.382;2023-02-13T04:45:55;96667.75;;;-1.98;75.80
68179;BME280;54998;42.656;23.382;2023-02-13T04:48:20;96665.28;;;-2.02;75.98
68179;BME280;54998;42.656;23.382;2023-02-13T04:50:45;96672.19;;;-2.18;76.45
68179;BME280;54998;42.656;23.382;2023-02-13T04:53:12;96668.75;;;-2.10;76.52
68179;BME280;54998;42.656;23.382;2023-02-13T04:55:37;96684.63;;;-2.06;76.46
68179;BME280;54998;42.656;23.382;2023-02-13T04:58:03;96693.03;;;-2.09;76.67
68179;BME280;54998;42.656;23.382;2023-02-13T05:00:28;96688.06;;;-2.12;76.72
68179;BME280;54998;42.656;23.382;2023-02-13T05:02:59;96690.50;;;-2.07;76.05
68179;BME280;54998;42.656;23.382;2023-02-13T05:05:25;96694.97;;;-2.28;76.87
68179;BME280;54998;42.656;23.382;2023-02-13T05:07:50;96693.31;;;-2.32;77.70
68179;BME280;54998;42.656;23.382;2023-02-13T05:10:15;96695.03;;;-2.34;77.53
68179;BME280;54998;42.656;23.382;2023-02-13T05:12:41;96700.75;;;-2.24;77.48
68179;BME280;54998;42.656;23.382;2023-02-13T05:15:07;96698.47;;;-2.42;77.62
68179;BME280;54998;42.656;23.382;2023-02-13T05:17:32;96706.00;;;-2.44;77.85
68179;BME280;54998;42.656;23.382;2023-02-13T05:19:57;96700.94;;;-2.38;77.03
68179;BME280;54998;42.656;23.382;2023-02-13T05:22:24;96707.53;;;-2.31;77.36
68179;BME280;54998;42.656;23.382;2023-02-13T05:25:08;96703.44;;;-2.38;77.11
68179;BME280;54998;42.656;23.382;2023-02-13T05:27:33;96712.59;;;-2.32;77.17
68179;BME280;54998;42.656;23.382;2023-02-13T05:29:58;96699.06;;;-2.19;77.05
68179;BME280;54998;42.656;23.382;2023-02-13T05:32:24;96710.59;;;-2.04;76.35
68179;BME280;54998;42.656;23.382;2023-02-13T05:34:49;96697.19;;;-2.06;76.20
68179;BME280;54998;42.656;23.382;2023-02-13T05:37:14;96704.66;;;-1.97;75.84
68179;BME280;54998;42.656;23.382;2023-02-13T05:39:40;96706.41;;;-2.05;75.70
68179;BME280;54998;42.656;23.382;2023-02-13T05:42:05;96707.25;;;-2.04;76.19
68179;BME280;54998;42.656;23.382;2023-02-13T05:44:31;96718.13;;;-2.01;76.42
68179;BME280;54998;42.656;23.382;2023-02-13T05:46:56;96715.41;;;-1.87;76.16
68179;BME280;54998;42.656;23.382;2023-02-13T05:49:24;96711.41;;;-2.02;76.08
68179;BME280;54998;42.656;23.382;2023-02-13T05:51:50;96721.56;;;-2.08;76.02
68179;BME280;54998;42.656;23.382;2023-02-13T05:54:16;96719.72;;;-1.95;75.76
68179;BME280;54998;42.656;23.382;2023-02-13T05:56:42;96726.59;;;-2.08;75.31
68179;BME280;54998;42.656;23.382;2023-02-13T05:59:08;96728.25;;;-2.07;76.04
68179;BME280;54998;42.656;23.382;2023-02-13T06:01:33;96724.66;;;-1.86;75.67
68179;BME280;54998;42.656;23.382;2023-02-13T06:03:58;96720.53;;;-1.93;74.97
68179;BME280;54998;42.656;23.382;2023-02-13T06:06:24;96728.25;;;-2.05;73.00
68179;BME280;54998;42.656;23.382;2023-02-13T06:08:50;96726.72;;;-2.20;73.12
68179;BME280;54998;42.656;23.382;2023-02-13T06:11:15;96744.28;;;-2.17;73.42
68179;BME280;54998;42.656;23.382;2023-02-13T06:13:41;96738.25;;;-2.04;72.67
68179;BME280;54998;42.656;23.382;2023-02-13T06:16:07;96731.63;;;-2.08;72.20
68179;BME280;54998;42.656;23.382;2023-02-13T06:18:33;96735.75;;;-2.04;72.49
68179;BME280;54998;42.656;23.382;2023-02-13T06:20:59;96732.47;;;-2.11;72.43
68179;BME280;54998;42.656;23.382;2023-02-13T06:23:24;96735.63;;;-1.93;72.18
68179;BME280;54998;42.656;23.382;2023-02-13T06:25:49;96740.53;;;-1.81;71.92
68179;BME280;54998;42.656;23.382;2023-02-13T06:28:15;96741.13;;;-1.63;71.33
68179;BME280;54998;42.656;23.382;2023-02-13T06:30:40;96741.00;;;-1.53;71.16
68179;BME280;54998;42.656;23.382;2023-02-13T06:33:06;96744.09;;;-1.32;70.40
68179;BME280;54998;42.656;23.382;2023-02-13T06:35:31;96750.84;;;-1.34;70.13
68179;BME280;54998;42.656;23.382;2023-02-13T06:37:57;96744.78;;;-1.22;69.66
68179;BME280;54998;42.656;23.382;2023-02-13T06:40:22;96740.53;;;-1.19;69.38
68179;BME280;54998;42.656;23.382;2023-02-13T06:42:47;96745.50;;;-1.13;69.09
68179;BME280;54998;42.656;23.382;2023-02-13T06:45:13;96747.94;;;-1.10;69.39
68179;BME280;54998;42.656;23.382;2023-02-13T06:47:43;96738.81;;;-1.17;69.13
68179;BME280;54998;42.656;23.382;2023-02-13T06:50:11;96757.94;;;-1.04;68.98
68179;BME280;54998;42.656;23.382;2023-02-13T06:52:36;96759.44;;;-0.92;68.63
68179;BME280;54998;42.656;23.382;2023-02-13T06:55:02;96751.59;;;-0.75;68.50
68179;BME280;54998;42.656;23.382;2023-02-13T06:57:29;96748.13;;;-0.68;68.48
68179;BME280;54998;42.656;23.382;2023-02-13T06:59:58;96747.09;;;-0.57;68.19
68179;BME280;54998;42.656;23.382;2023-02-13T07:27:01;96750.69;;;0.63;64.40
68179;BME280;54998;42.656;23.382;2023-02-13T07:29:27;96754.16;;;0.57;65.16
68179;BME280;54998;42.656;23.382;2023-02-13T07:31:52;96755.03;;;0.14;66.63
68179;BME280;54998;42.656;23.382;2023-02-13T07:34:17;96754.63;;;0.36;66.83
68179;BME280;54998;42.656;23.382;2023-02-13T07:36:43;96752.09;;;0.76;65.30
68179;BME280;54998;42.656;23.382;2023-02-13T07:39:08;96752.50;;;0.56;65.15
68179;BME280;54998;42.656;23.382;2023-02-13T07:41:33;96751.72;;;0.54;65.91
68179;BME280;54998;42.656;23.382;2023-02-13T07:43:59;96745.78;;;0.55;65.71
68179;BME280;54998;42.656;23.382;2023-02-13T07:46:24;96754.16;;;0.59;65.69
68179;BME280;54998;42.656;23.382;2023-02-13T07:48:53;96747.66;;;1.22;64.05
68179;BME280;54998;42.656;23.382;2023-02-13T07:51:18;96746.28;;;1.43;63.22
68179;BME280;54998;42.656;23.382;2023-02-13T07:53:44;96747.63;;;0.86;64.62
68179;BME280;54998;42.656;23.382;2023-02-13T07:56:09;96744.03;;;0.96;64.40
68179;BME280;54998;42.656;23.382;2023-02-13T07:58:36;96745.81;;;0.93;65.01
68179;BME280;54998;42.656;23.382;2023-02-13T08:03:32;96748.56;;;1.54;63.25
68179;BME280;54998;42.656;23.382;2023-02-13T08:05:58;96754.13;;;1.32;63.50
68179;BME280;54998;42.656;23.382;2023-02-13T08:08:23;96745.75;;;0.96;64.43
68179;BME280;54998;42.656;23.382;2023-02-13T08:10:48;96738.22;;;1.29;63.32
68179;BME280;54998;42.656;23.382;2023-02-13T08:13:33;96745.97;;;1.21;63.74
68179;BME280;54998;42.656;23.382;2023-02-13T08:15:58;96745.13;;;1.22;63.99
68179;BME280;54998;42.656;23.382;2023-02-13T08:18:23;96743.41;;;0.87;64.27
68179;BME280;54998;42.656;23.382;2023-02-13T08:20:49;96745.31;;;1.13;63.79
68179;BME280;54998;42.656;23.382;2023-02-13T08:23:14;96741.94;;;1.50;63.03
68179;BME280;54998;42.656;23.382;2023-02-13T08:25:39;96741.25;;;1.76;61.84
68179;BME280;54998;42.656;23.382;2023-02-13T08:28:06;96745.13;;;1.22;63.43
68179;BME280;54998;42.656;23.382;2023-02-13T08:30:32;96740.41;;;0.71;65.06
68179;BME280;54998;42.656;23.382;2023-02-13T08:32:57;96742.53;;;0.89;64.84
68179;BME280;54998;42.656;23.382;2023-02-13T08:35:23;96736.47;;;0.95;64.66
68179;BME280;54998;42.656;23.382;2023-02-13T08:37:52;96739.78;;;0.98;64.41
68179;BME280;54998;42.656;23.382;2023-02-13T08:40:17;96743.44;;;1.22;64.04
68179;BME280;54998;42.656;23.382;2023-02-13T08:42:43;96728.34;;;1.19;63.79
68179;BME280;54998;42.656;23.382;2023-02-13T08:45:08;96737.41;;;0.91;64.26
68179;BME280;54998;42.656;23.382;2023-02-13T08:47:36;96744.69;;;0.67;65.55
68179;BME280;54998;42.656;23.382;2023-02-13T08:50:03;96749.81;;;0.64;65.72
68179;BME280;54998;42.656;23.382;2023-02-13T08:52:28;96741.72;;;0.87;65.04
68179;BME280;54998;42.656;23.382;2023-02-13T08:54:54;96740.50;;;0.66;66.20
68179;BME280;54998;42.656;23.382;2023-02-13T08:57:19;96752.03;;;0.78;65.42
68179;BME280;54998;42.656;23.382;2023-02-13T08:59:45;96747.47;;;0.94;64.69
68179;BME280;54998;42.656;23.382;2023-02-13T09:02:11;96741.38;;;0.65;65.79
68179;BME280;54998;42.656;23.382;2023-02-13T09:04:36;96744.25;;;1.23;63.80
68179;BME280;54998;42.656;23.382;2023-02-13T09:07:01;96741.75;;;1.56;63.12
68179;BME280;54998;42.656;23.382;2023-02-13T09:09:27;96739.47;;;1.47;62.32
68179;BME280;54998;42.656;23.382;2023-02-13T09:11:52;96746.84;;;1.21;63.61
68179;BME280;54998;42.656;23.382;2023-02-13T09:14:20;96751.00;;;1.22;63.30
68179;BME280;54998;42.656;23.382;2023-02-13T09:16:45;96746.22;;;1.12;63.32
68179;BME280;54998;42.656;23.382;2023-02-13T09:19:11;96746.81;;;1.56;62.43
68179;BME280;54998;42.656;23.382;2023-02-13T09:21:36;96737.66;;;1.84;62.01
68179;BME280;54998;42.656;23.382;2023-02-13T09:24:06;96730.28;;;2.36;60.31
68179;BME280;54998;42.656;23.382;2023-02-13T09:26:31;96723.91;;;2.81;58.33
68179;BME280;54998;42.656;23.382;2023-02-13T09:28:57;96730.38;;;2.91;58.25
68179;BME280;54998;42.656;23.382;2023-02-13T09:31:22;96733.09;;;2.57;59.00
68179;BME280;54998;42.656;23.382;2023-02-13T09:33:48;96724.06;;;3.03;57.52
68179;BME280;54998;42.656;23.382;2023-02-13T09:36:19;96718.88;;;3.34;56.64
68179;BME280;54998;42.656;23.382;2023-02-13T09:38:46;96719.34;;;3.45;56.71
68179;BME280;54998;42.656;23.382;2023-02-13T09:41:15;96720.97;;;4.44;53.86
68179;BME280;54998;42.656;23.382;2023-02-13T09:43:48;96717.03;;;4.59;52.19
68179;BME280;54998;42.656;23.382;2023-02-13T09:46:23;96709.53;;;3.60;55.22
68179;BME280;54998;42.656;23.382;2023-02-13T09:48:53;96703.94;;;4.22;54.11
68179;BME280;54998;42.656;23.382;2023-02-13T09:51:21;96704.47;;;4.54;53.66
68179;BME280;54998;42.656;23.382;2023-02-13T09:53:56;96698.19;;;5.49;50.40
68179;BME280;54998;42.656;23.382;2023-02-13T09:59:33;96696.56;;;6.27;48.79
68179;BME280;54998;42.656;23.382;2023-02-13T10:02:13;96685.59;;;7.34;45.62
68179;BME280;54998;42.656;23.382;2023-02-13T10:04:55;96688.38;;;6.57;47.01
68179;BME280;54998;42.656;23.382;2023-02-13T10:21:53;96672.31;;;6.19;47.51
68179;BME280;54998;42.656;23.382;2023-02-13T10:24:34;96662.44;;;5.30;50.09
68179;BME280;54998;42.656;23.382;2023-02-13T10:27:08;96655.34;;;6.36;48.41
68179;BME280;54998;42.656;23.382;2023-02-13T10:29:47;96656.69;;;7.67;45.24
68179;BME280;54998;42.656;23.382;2023-02-13T10:32:59;96648.09;;;7.00;45.15
68179;BME280;54998;42.656;23.382;2023-02-13T10:35:51;96642.22;;;8.49;42.15
68179;BME280;54998;42.656;23.382;2023-02-13T10:38:19;96634.88;;;10.35;38.88
68179;BME280;54998;42.656;23.382;2023-02-13T10:44:08;96633.03;;;9.37;41.13
68179;BME280;54998;42.656;23.382;2023-02-13T10:52:06;96612.44;;;11.57;35.64
68179;BME280;54998;42.656;23.382;2023-02-13T11:00:25;96605.66;;;8.93;40.38
68179;BME280;54998;42.656;23.382;2023-02-13T11:02:56;96609.38;;;8.25;41.65
68179;BME280;54998;42.656;23.382;2023-02-13T11:05:27;96600.09;;;9.88;39.20
68179;BME280;54998;42.656;23.382;2023-02-13T11:07:55;96592.91;;;11.55;36.24
68179;BME280;54998;42.656;23.382;2023-02-13T11:10:23;96592.50;;;11.22;36.12
68179;BME280;54998;42.656;23.382;2023-02-13T11:12:50;96595.53;;;9.79;38.05
68179;BME280;54998;42.656;23.382;2023-02-13T11:17:48;96581.28;;;10.98;36.58
68179;BME280;54998;42.656;23.382;2023-02-13T11:26:00;96559.97;;;11.98;34.25
68179;BME280;54998;42.656;23.382;2023-02-13T11:28:31;96554.44;;;11.66;34.69
68179;BME280;54998;42.656;23.382;2023-02-13T11:31:21;96555.59;;;11.23;34.81
68179;BME280;54998;42.656;23.382;2023-02-13T11:33:47;96534.09;;;12.72;32.25
68179;BME280;54998;42.656;23.382;2023-02-13T11:36:15;96534.59;;;14.14;30.62
68179;BME280;54998;42.656;23.382;2023-02-13T11:38:41;96539.03;;;12.75;31.94
68179;BME280;54998;42.656;23.382;2023-02-13T11:41:12;96530.19;;;11.44;34.22
68179;BME280;54998;42.656;23.382;2023-02-13T11:43:52;96536.47;;;12.03;33.94
68179;BME280;54998;42.656;23.382;2023-02-13T11:46:23;96529.25;;;12.91;32.17
68179;BME280;54998;42.656;23.382;2023-02-13T11:49:02;96512.66;;;13.07;31.90
68179;BME280;54998;42.656;23.382;2023-02-13T11:51:35;96521.16;;;11.39;33.98
68179;BME280;54998;42.656;23.382;2023-02-13T11:54:00;96507.13;;;10.26;36.35
68179;BME280;54998;42.656;23.382;2023-02-13T11:56:26;96514.34;;;10.74;35.83
68179;BME280;54998;42.656;23.382;2023-02-13T11:59:00;96493.47;;;11.55;34.46
68179;BME280;54998;42.656;23.382;2023-02-13T12:01:27;96489.00;;;13.24;30.75
68179;BME280;54998;42.656;23.382;2023-02-13T12:04:06;96482.44;;;13.65;30.69
68179;BME280;54998;42.656;23.382;2023-02-13T12:06:38;96489.50;;;11.88;33.38
68179;BME280;54998;42.656;23.382;2023-02-13T12:09:09;96488.59;;;11.76;33.97
68179;BME280;54998;42.656;23.382;2023-02-13T12:11:47;96488.72;;;9.92;36.87
68179;BME280;54998;42.656;23.382;2023-02-13T12:14:19;96486.06;;;7.88;40.49
68179;BME280;54998;42.656;23.382;2023-02-13T12:16:50;96477.59;;;7.88;40.46
68179;BME280;54998;42.656;23.382;2023-02-13T12:19:34;96468.22;;;7.07;42.16
68179;BME280;54998;42.656;23.382;2023-02-13T12:22:31;96473.41;;;6.55;43.14
68179;BME280;54998;42.656;23.382;2023-02-13T12:47:18;96461.22;;;5.89;43.98
68179;BME280;54998;42.656;23.382;2023-02-13T13:00:39;96435.06;;;5.85;43.33
68179;BME280;54998;42.656;23.382;2023-02-13T13:05:59;96439.03;;;5.91;43.19
68179;BME280;54998;42.656;23.382;2023-02-13T13:14:13;96423.91;;;5.88;42.54
68179;BME280;54998;42.656;23.382;2023-02-13T13:25:23;96414.69;;;7.22;40.31
68179;BME280;54998;42.656;23.382;2023-02-13T13:27:54;96397.41;;;6.77;41.07
68179;BME280;54998;42.656;23.382;2023-02-13T13:30:24;96401.41;;;7.15;40.26
68179;BME280;54998;42.656;23.382;2023-02-13T13:32:56;96402.91;;;6.70;41.28
68179;BME280;54998;42.656;23.382;2023-02-13T13:35:25;96408.00;;;6.19;42.23
68179;BME280;54998;42.656;23.382;2023-02-13T13:45:41;96402.75;;;5.68;43.61
68179;BME280;54998;42.656;23.382;2023-02-13T13:50:54;96397.41;;;5.55;44.16
68179;BME280;54998;42.656;23.382;2023-02-13T13:53:20;96403.06;;;5.43;44.33
68179;BME280;54998;42.656;23.382;2023-02-13T13:58:41;96403.22;;;5.40;44.04
68179;BME280;54998;42.656;23.382;2023-02-13T14:01:23;96402.78;;;5.49;44.35
68179;BME280;54998;42.656;23.382;2023-02-13T14:03:52;96397.75;;;5.29;44.81
68179;BME280;54998;42.656;23.382;2023-02-13T14:06:27;96391.38;;;5.20;45.32
68179;BME280;54998;42.656;23.382;2023-02-13T14:08:56;96396.88;;;5.30;44.96
68179;BME280;54998;42.656;23.382;2023-02-13T14:13:50;96385.78;;;5.31;45.15
68179;BME280;54998;42.656;23.382;2023-02-13T14:16:42;96392.41;;;5.35;45.25
68179;BME280;54998;42.656;23.382;2023-02-13T14:19:31;96390.56;;;5.20;45.45
68179;BME280;54998;42.656;23.382;2023-02-13T14:24:54;96379.34;;;5.24;45.68
68179;BME280;54998;42.656;23.382;2023-02-13T14:27:22;96377.13;;;5.16;45.73
68179;BME280;54998;42.656;23.382;2023-02-13T14:29:48;96372.19;;;5.13;46.01
68179;BME280;54998;42.656;23.382;2023-02-13T14:34:52;96364.34;;;4.99;46.47
68179;BME280;54998;42.656;23.382;2023-02-13T14:37:33;96372.13;;;4.96;46.49
68179;BME280;54998;42.656;23.382;2023-02-13T14:42:50;96370.75;;;4.88;47.29
68179;BME280;54998;42.656;23.382;2023-02-13T14:45:21;96369.66;;;4.75;47.15
68179;BME280;54998;42.656;23.382;2023-02-13T14:47:50;96362.97;;;4.91;47.45
68179;BME280;54998;42.656;23.382;2023-02-13T14:50:30;96365.66;;;4.88;47.47
68179;BME280;54998;42.656;23.382;2023-02-13T14:52:59;96366.56;;;4.87;47.11
68179;BME280;54998;42.656;23.382;2023-02-13T14:55:34;96364.34;;;4.80;47.39
68179;BME280;54998;42.656;23.382;2023-02-13T14:58:46;96357.00;;;4.73;47.36
68179;BME280;54998;42.656;23.382;2023-02-13T15:06:06;96370.78;;;4.49;48.20
68179;BME280;54998;42.656;23.382;2023-02-13T15:08:42;96366.63;;;4.46;48.51
68179;BME280;54998;42.656;23.382;2023-02-13T15:11:09;96364.19;;;4.45;48.76
68179;BME280;54998;42.656;23.382;2023-02-13T15:13:54;96369.91;;;4.29;49.03
68179;BME280;54998;42.656;23.382;2023-02-13T15:16:20;96364.06;;;4.27;49.00
68179;BME280;54998;42.656;23.382;2023-02-13T15:18:50;96368.19;;;4.30;49.16
68179;BME280;54998;42.656;23.382;2023-02-13T15:21:21;96367.63;;;4.23;48.98
68179;BME280;54998;42.656;23.382;2023-02-13T15:23:53;96366.16;;;4.18;48.86
68179;BME280;54998;42.656;23.382;2023-02-13T15:26:23;96374.34;;;4.04;49.05
68179;BME280;54998;42.656;23.382;2023-02-13T15:29:16;96370.03;;;4.06;49.58
68179;BME280;54998;42.656;23.382;2023-02-13T15:31:41;96375.91;;;3.86;49.96
68179;BME280;54998;42.656;23.382;2023-02-13T15:36:44;96379.75;;;3.96;49.43
68179;BME280;54998;42.656;23.382;2023-02-13T15:39:15;96375.03;;;3.87;50.10
68179;BME280;54998;42.656;23.382;2023-02-13T15:41:45;96371.72;;;3.85;50.33
68179;BME280;54998;42.656;23.382;2023-02-13T15:44:16;96370.25;;;3.79;50.43
68179;BME280;54998;42.656;23.382;2023-02-13T15:46:45;96381.78;;;3.66;50.56
68179;BME280;54998;42.656;23.382;2023-02-13T15:49:15;96382.75;;;3.63;50.96
68179;BME280;54998;42.656;23.382;2023-02-13T15:51:42;96380.56;;;3.54;50.76
68179;BME280;54998;42.656;23.382;2023-02-13T15:54:25;96380.00;;;3.47;51.20
68179;BME280;54998;42.656;23.382;2023-02-13T15:56:54;96387.59;;;3.47;51.14
68179;BME280;54998;42.656;23.382;2023-02-13T15:59:20;96386.06;;;3.43;51.76
68179;BME280;54998;42.656;23.382;2023-02-13T16:01:46;96384.47;;;3.41;51.66
68179;BME280;54998;42.656;23.382;2023-02-13T16:04:14;96389.72;;;3.36;51.73
68179;BME280;54998;42.656;23.382;2023-02-13T16:06:42;96374.84;;;3.27;51.92
68179;BME280;54998;42.656;23.382;2023-02-13T16:09:34;96390.41;;;3.18;52.49
68179;BME280;54998;42.656;23.382;2023-02-13T16:12:19;96387.16;;;3.14;52.19
68179;BME280;54998;42.656;23.382;2023-02-13T16:17:36;96385.56;;;3.12;51.88
68179;BME280;54998;42.656;23.382;2023-02-13T16:22:34;96396.41;;;2.93;52.32
68179;BME280;54998;42.656;23.382;2023-02-13T16:25:09;96409.59;;;3.01;52.49
68179;BME280;54998;42.656;23.382;2023-02-13T16:27:43;96403.09;;;2.94;52.63
68179;BME280;54998;42.656;23.382;2023-02-13T16:30:37;96405.94;;;2.86;53.15
68179;BME280;54998;42.656;23.382;2023-02-13T16:35:38;96408.16;;;2.71;53.74